sensor_id;sensor_type;location;lat;lon;timestamp;temperature;humidity
19908;DHT22;10116;53.112;7.356;2022-10-31T00:00:21;26.50;99.90
19908;DHT22;10116;53.112;7.356;2022-10-31T00:02:47;26.50;99.90
19908;DHT22;10116;53.112;7.356;2022-10-31T00:05:12;26.50;99.90
19908;DHT22;10116;53.112;7.356;2022-10-31T00:07:38;26.50;99.90
19908;DHT22;10116;53.112;7.356;2022-10-31T00:10:04;26.50;99.90
19908;DHT22;10116;53.112;7.356;2022-10-31T00:12:30;26.50;99.90
19908;DHT22;10116;53.112;7.356;2022-10-31T00:14:55;26.50;99.90
19908;DHT22;10116;53.112;7.356;2022-10-31T00:17:21;26.50;99.90
19908;DHT22;10116;53.112;7.356;2022-10-31T00:19:46;26.50;99.90
19908;DHT22;10116;53.112;7.356;2022-10-31T00:22:12;26.50;99.90
19908;DHT22;10116;53.112;7.356;2022-10-31T00:24:37;26.50;99.90
19908;DHT22;10116;53.112;7.356;2022-10-31T00:27:03;26.50;99.90
19908;DHT22;10116;53.112;7.356;2022-10-31T00:29:29;26.50;99.90
19908;DHT22;10116;53.112;7.356;2022-10-31T00:31:54;26.50;99.90
19908;DHT22;10116;53.112;7.356;2022-10-31T00:34:20;26.50;99.90
19908;DHT22;10116;53.112;7.356;2022-10-31T00:36:45;26.50;99.90
19908;DHT22;10116;53.112;7.356;2022-10-31T00:39:11;26.50;99.90
19908;DHT22;10116;53.112;7.356;2022-10-31T00:41:36;26.50;99.90
19908;DHT22;10116;53.112;7.356;2022-10-31T00:44:02;26.50;99.90
19908;DHT22;10116;53.112;7.356;2022-10-31T00:46:28;26.50;99.90
19908;DHT22;10116;53.112;7.356;2022-10-31T00:48:53;26.50;99.90
19908;DHT22;10116;53.112;7.356;2022-10-31T00:51:19;26.50;99.90
19908;DHT22;10116;53.112;7.356;2022-10-31T00:53:45;26.50;99.90
19908;DHT22;10116;53.112;7.356;2022-10-31T00:56:10;26.50;99.90
19908;DHT22;10116;53.112;7.356;2022-10-31T00:58:36;26.50;99.90
19908;DHT22;10116;53.112;7.356;2022-10-31T01:01:02;26.50;99.90
19908;DHT22;10116;53.112;7.356;2022-10-31T01:03:30;26.50;99.90
19908;DHT22;10116;53.112;7.356;2022-10-31T01:08:23;26.50;99.90
19908;DHT22;10116;53.112;7.356;2022-10-31T01:11:02;26.50;99.90
19908;DHT22;10116;53.112;7.356;2022-10-31T01:13:28;26.50;99.90
19908;DHT22;10116;53.112;7.356;2022-10-31T01:15:58;26.40;99.90
19908;DHT22;10116;53.112;7.356;2022-10-31T01:18:24;26.50;99.90
19908;DHT22;10116;53.112;7.356;2022-10-31T01:21:08;26.50;99.90
19908;DHT22;10116;53.112;7.356;2022-10-31T01:23:34;26.40;99.90
19908;DHT22;10116;53.112;7.356;2022-10-31T01:26:14;26.40;99.90
19908;DHT22;10116;53.112;7.356;2022-10-31T01:28:46;26.50;99.90
19908;DHT22;10116;53.112;7.356;2022-10-31T01:31:12;26.40;99.90
19908;DHT22;10116;53.112;7.356;2022-10-31T01:33:38;26.40;99.90
19908;DHT22;10116;53.112;7.356;2022-10-31T01:38:38;26.40;99.90
19908;DHT22;10116;53.112;7.356;2022-10-31T01:41:04;26.40;99.90
19908;DHT22;10116;53.112;7.356;2022-10-31T01:46:20;26.40;99.90
19908;DHT22;10116;53.112;7.356;2022-10-31T01:48:47;26.40;99.90
19908;DHT22;10116;53.112;7.356;2022-10-31T01:51:14;26.30;99.90
19908;DHT22;10116;53.112;7.356;2022-10-31T01:53:42;26.40;99.90
19908;DHT22;10116;53.112;7.356;2022-10-31T01:56:09;26.40;99.90
19908;DHT22;10116;53.112;7.356;2022-10-31T01:58:35;26.40;99.90
19908;DHT22;10116;53.112;7.356;2022-10-31T02:01:01;26.30;99.90
19908;DHT22;10116;53.112;7.356;2022-10-31T02:03:28;26.40;99.90
19908;DHT22;10116;53.112;7.356;2022-10-31T02:05:55;26.40;99.90
19908;DHT22;10116;53.112;7.356;2022-10-31T02:08:29;26.40;99.90
19908;DHT22;10116;53.112;7.356;2022-10-31T02:10:57;26.40;99.90
19908;DHT22;10116;53.112;7.356;2022-10-31T02:13:23;26.40;99.90
19908;DHT22;10116;53.112;7.356;2022-10-31T02:15:53;26.40;99.90
19908;DHT22;10116;53.112;7.356;2022-10-31T02:18:20;26.30;99.90
19908;DHT22;10116;53.112;7.356;2022-10-31T02:32:32;26.40;99.90
19908;DHT22;10116;53.112;7.356;2022-10-31T02:52:24;26.30;99.90
19908;DHT22;10116;53.112;7.356;2022-10-31T02:54:51;26.30;99.90
19908;DHT22;10116;53.112;7.356;2022-10-31T02:57:22;26.30;99.90
19908;DHT22;10116;53.112;7.356;2022-10-31T02:59:53;26.30;99.90
19908;DHT22;10116;53.112;7.356;2022-10-31T03:16:15;26.30;99.90
19908;DHT22;10116;53.112;7.356;2022-10-31T03:19:38;26.30;99.90
19908;DHT22;10116;53.112;7.356;2022-10-31T03:21:55;26.30;99.90
19908;DHT22;10116;53.112;7.356;2022-10-31T03:24:25;26.30;99.90
19908;DHT22;10116;53.112;7.356;2022-10-31T03:26:55;26.30;99.90
19908;DHT22;10116;53.112;7.356;2022-10-31T03:29:25;26.30;99.90
19908;DHT22;10116;53.112;7.356;2022-10-31T03:32:08;26.30;99.90
19908;DHT22;10116;53.112;7.356;2022-10-31T03:34:37;26.30;99.90
19908;DHT22;10116;53.112;7.356;2022-10-31T03:37:06;26.30;99.90
19908;DHT22;10116;53.112;7.356;2022-10-31T03:39:33;26.30;99.90
19908;DHT22;10116;53.112;7.356;2022-10-31T03:42:06;26.30;99.90
19908;DHT22;10116;53.112;7.356;2022-10-31T03:44:34;26.30;99.90
19908;DHT22;10116;53.112;7.356;2022-10-31T03:47:00;26.30;99.90
19908;DHT22;10116;53.112;7.356;2022-10-31T03:49:27;26.20;99.90
19908;DHT22;10116;53.112;7.356;2022-10-31T03:52:33;26.30;99.90
19908;DHT22;10116;53.112;7.356;2022-10-31T03:58:03;26.30;99.90
19908;DHT22;10116;53.112;7.356;2022-10-31T04:00:31;26.30;99.90
19908;DHT22;10116;53.112;7.356;2022-10-31T04:03:07;26.20;99.90
19908;DHT22;10116;53.112;7.356;2022-10-31T04:05:35;26.30;99.90
19908;DHT22;10116;53.112;7.356;2022-10-31T04:08:05;26.20;99.90
19908;DHT22;10116;53.112;7.356;2022-10-31T04:10:33;26.20;99.90
19908;DHT22;10116;53.112;7.356;2022-10-31T04:13:07;26.20;99.90
19908;DHT22;10116;53.112;7.356;2022-10-31T04:15:35;26.20;99.90
19908;DHT22;10116;53.112;7.356;2022-10-31T04:18:02;26.20;99.90
19908;DHT22;10116;53.112;7.356;2022-10-31T04:20:30;26.20;99.90
19908;DHT22;10116;53.112;7.356;2022-10-31T04:22:56;26.20;99.90
19908;DHT22;10116;53.112;7.356;2022-10-31T04:25:22;26.20;99.90
19908;DHT22;10116;53.112;7.356;2022-10-31T04:27:47;26.20;99.90
19908;DHT22;10116;53.112;7.356;2022-10-31T04:30:13;26.20;99.90
19908;DHT22;10116;53.112;7.356;2022-10-31T04:32:39;26.30;99.90
19908;DHT22;10116;53.112;7.356;2022-10-31T04:35:05;26.30;99.90
19908;DHT22;10116;53.112;7.356;2022-10-31T04:37:30;26.50;99.90
19908;DHT22;10116;53.112;7.356;2022-10-31T04:39:56;26.50;99.90
19908;DHT22;10116;53.112;7.356;2022-10-31T04:42:21;26.60;99.90
19908;DHT22;10116;53.112;7.356;2022-10-31T04:44:47;26.60;99.90
19908;DHT22;10116;53.112;7.356;2022-10-31T04:47:12;26.70;99.90
19908;DHT22;10116;53.112;7.356;2022-10-31T04:49:38;26.70;99.90
19908;DHT22;10116;53.112;7.356;2022-10-31T04:52:04;26.70;99.90
19908;DHT22;10116;53.112;7.356;2022-10-31T04:54:29;26.70;99.90
19908;DHT22;10116;53.112;7.356;2022-10-31T04:56:55;26.70;99.90
19908;DHT22;10116;53.112;7.356;2022-10-31T04:59:20;26.70;99.90
19908;DHT22;10116;53.112;7.356;2022-10-31T05:01:46;26.70;99.90
19908;DHT22;10116;53.112;7.356;2022-10-31T05:04:12;26.60;99.90
19908;DHT22;10116;53.112;7.356;2022-10-31T05:06:37;26.60;99.90
19908;DHT22;10116;53.112;7.356;2022-10-31T05:09:03;26.60;99.90
19908;DHT22;10116;53.112;7.356;2022-10-31T05:11:28;26.60;99.90
19908;DHT22;10116;53.112;7.356;2022-10-31T05:13:54;26.60;99.90
19908;DHT22;10116;53.112;7.356;2022-10-31T05:16:20;26.60;99.90
19908;DHT22;10116;53.112;7.356;2022-10-31T05:18:45;26.60;99.90
19908;DHT22;10116;53.112;7.356;2022-10-31T05:21:11;26.60;99.90
19908;DHT22;10116;53.112;7.356;2022-10-31T05:23:36;26.60;99.90
19908;DHT22;10116;53.112;7.356;2022-10-31T05:26:02;26.50;99.90
19908;DHT22;10116;53.112;7.356;2022-10-31T05:28:27;26.50;99.90
19908;DHT22;10116;53.112;7.356;2022-10-31T05:30:53;26.50;99.90
19908;DHT22;10116;53.112;7.356;2022-10-31T05:33:19;26.50;99.90
19908;DHT22;10116;53.112;7.356;2022-10-31T05:35:44;26.50;99.90
19908;DHT22;10116;53.112;7.356;2022-10-31T05:38:10;26.50;99.90
19908;DHT22;10116;53.112;7.356;2022-10-31T05:40:35;26.50;99.90
19908;DHT22;10116;53.112;7.356;2022-10-31T05:43:01;26.50;99.90
19908;DHT22;10116;53.112;7.356;2022-10-31T05:45:26;26.40;99.90
19908;DHT22;10116;53.112;7.356;2022-10-31T05:47:57;26.40;99.90
19908;DHT22;10116;53.112;7.356;2022-10-31T05:50:24;26.40;99.90
19908;DHT22;10116;53.112;7.356;2022-10-31T05:53:04;26.40;99.90
19908;DHT22;10116;53.112;7.356;2022-10-31T05:55:30;26.40;99.90
19908;DHT22;10116;53.112;7.356;2022-10-31T05:57:56;26.40;99.90
19908;DHT22;10116;53.112;7.356;2022-10-31T06:00:24;26.40;99.90
19908;DHT22;10116;53.112;7.356;2022-10-31T06:02:57;26.40;99.90
19908;DHT22;10116;53.112;7.356;2022-10-31T06:05:24;26.40;99.90
19908;DHT22;10116;53.112;7.356;2022-10-31T06:07:49;26.40;99.90
19908;DHT22;10116;53.112;7.356;2022-10-31T06:10:15;26.40;99.90
19908;DHT22;10116;53.112;7.356;2022-10-31T06:12:41;26.50;99.90
19908;DHT22;10116;53.112;7.356;2022-10-31T06:15:08;26.50;99.90
19908;DHT22;10116;53.112;7.356;2022-10-31T06:17:34;26.60;99.90
19908;DHT22;10116;53.112;7.356;2022-10-31T06:20:00;26.70;99.90
19908;DHT22;10116;53.112;7.356;2022-10-31T06:22:26;26.70;99.90
19908;DHT22;10116;53.112;7.356;2022-10-31T06:24:52;26.70;99.90
19908;DHT22;10116;53.112;7.356;2022-10-31T06:27:18;26.80;99.90
19908;DHT22;10116;53.112;7.356;2022-10-31T06:29:43;26.80;99.90
19908;DHT22;10116;53.112;7.356;2022-10-31T06:32:11;26.80;99.90
19908;DHT22;10116;53.112;7.356;2022-10-31T06:34:38;26.80;99.90
19908;DHT22;10116;53.112;7.356;2022-10-31T06:37:09;26.70;99.90
19908;DHT22;10116;53.112;7.356;2022-10-31T06:39:35;26.70;99.90
19908;DHT22;10116;53.112;7.356;2022-10-31T06:42:02;26.70;99.90
19908;DHT22;10116;53.112;7.356;2022-10-31T06:44:27;26.70;99.90
19908;DHT22;10116;53.112;7.356;2022-10-31T06:46:53;26.70;99.90
19908;DHT22;10116;53.112;7.356;2022-10-31T06:49:19;26.70;99.90
19908;DHT22;10116;53.112;7.356;2022-10-31T06:51:47;26.60;99.90
19908;DHT22;10116;53.112;7.356;2022-10-31T06:54:13;26.70;99.90
19908;DHT22;10116;53.112;7.356;2022-10-31T06:56:38;26.60;99.90
19908;DHT22;10116;53.112;7.356;2022-10-31T06:59:04;26.60;99.90
19908;DHT22;10116;53.112;7.356;2022-10-31T07:01:30;26.60;99.90
19908;DHT22;10116;53.112;7.356;2022-10-31T07:03:55;26.50;99.90
19908;DHT22;10116;53.112;7.356;2022-10-31T07:06:21;26.50;99.90
19908;DHT22;10116;53.112;7.356;2022-10-31T07:08:46;26.50;99.90
19908;DHT22;10116;53.112;7.356;2022-10-31T07:11:12;26.50;99.90
19908;DHT22;10116;53.112;7.356;2022-10-31T07:13:38;26.50;99.90
19908;DHT22;10116;53.112;7.356;2022-10-31T07:16:05;26.50;99.90
19908;DHT22;10116;53.112;7.356;2022-10-31T07:18:32;26.50;99.90
19908;DHT22;10116;53.112;7.356;2022-10-31T07:20:58;26.50;99.90
19908;DHT22;10116;53.112;7.356;2022-10-31T07:23:23;26.50;99.90
19908;DHT22;10116;53.112;7.356;2022-10-31T07:25:55;26.40;99.90
19908;DHT22;10116;53.112;7.356;2022-10-31T07:28:21;26.40;99.90
19908;DHT22;10116;53.112;7.356;2022-10-31T07:30:50;26.40;99.90
19908;DHT22;10116;53.112;7.356;2022-10-31T07:33:16;26.40;99.90
19908;DHT22;10116;53.112;7.356;2022-10-31T07:35:41;26.40;99.90
19908;DHT22;10116;53.112;7.356;2022-10-31T07:38:12;26.50;99.90
19908;DHT22;10116;53.112;7.356;2022-10-31T07:40:39;26.60;99.90
19908;DHT22;10116;53.112;7.356;2022-10-31T07:43:04;26.70;99.90
19908;DHT22;10116;53.112;7.356;2022-10-31T07:45:30;26.70;99.90
19908;DHT22;10116;53.112;7.356;2022-10-31T07:47:56;26.70;99.90
19908;DHT22;10116;53.112;7.356;2022-10-31T07:50:27;26.80;99.90
19908;DHT22;10116;53.112;7.356;2022-10-31T07:53:03;26.80;99.90
19908;DHT22;10116;53.112;7.356;2022-10-31T07:55:29;26.80;99.90
19908;DHT22;10116;53.112;7.356;2022-10-31T07:58:00;26.80;99.90
19908;DHT22;10116;53.112;7.356;2022-10-31T08:00:26;26.70;99.90
19908;DHT22;10116;53.112;7.356;2022-10-31T08:02:59;26.70;99.90
19908;DHT22;10116;53.112;7.356;2022-10-31T08:05:25;26.80;99.90
19908;DHT22;10116;53.112;7.356;2022-10-31T08:07:50;26.70;99.90
19908;DHT22;10116;53.112;7.356;2022-10-31T08:10:16;26.70;99.90
19908;DHT22;10116;53.112;7.356;2022-10-31T08:12:41;26.70;99.90
19908;DHT22;10116;53.112;7.356;2022-10-31T08:15:07;26.70;99.90
19908;DHT22;10116;53.112;7.356;2022-10-31T08:17:37;26.60;99.90
19908;DHT22;10116;53.112;7.356;2022-10-31T08:20:04;26.60;99.90
19908;DHT22;10116;53.112;7.356;2022-10-31T08:22:30;26.60;99.90
19908;DHT22;10116;53.112;7.356;2022-10-31T08:24:55;26.60;99.90
19908;DHT22;10116;53.112;7.356;2022-10-31T08:27:21;26.60;99.90
19908;DHT22;10116;53.112;7.356;2022-10-31T08:29:47;26.60;99.90
19908;DHT22;10116;53.112;7.356;2022-10-31T08:32:12;26.60;99.90
19908;DHT22;10116;53.112;7.356;2022-10-31T08:34:38;26.60;99.90
19908;DHT22;10116;53.112;7.356;2022-10-31T08:37:04;26.60;99.90
19908;DHT22;10116;53.112;7.356;2022-10-31T08:39:29;26.50;99.90
19908;DHT22;10116;53.112;7.356;2022-10-31T08:41:55;26.50;99.90
19908;DHT22;10116;53.112;7.356;2022-10-31T08:44:20;26.50;99.90
19908;DHT22;10116;53.112;7.356;2022-10-31T08:46:46;26.50;99.90
19908;DHT22;10116;53.112;7.356;2022-10-31T08:49:12;26.50;99.90
19908;DHT22;10116;53.112;7.356;2022-10-31T08:51:37;26.50;99.90
19908;DHT22;10116;53.112;7.356;2022-10-31T08:54:03;26.50;99.90
19908;DHT22;10116;53.112;7.356;2022-10-31T08:56:29;26.50;99.90
19908;DHT22;10116;53.112;7.356;2022-10-31T08:58:55;26.50;99.90
19908;DHT22;10116;53.112;7.356;2022-10-31T09:01:20;26.50;99.90
19908;DHT22;10116;53.112;7.356;2022-10-31T09:03:46;26.60;99.90
19908;DHT22;10116;53.112;7.356;2022-10-31T09:06:11;26.60;99.90
19908;DHT22;10116;53.112;7.356;2022-10-31T09:08:37;26.70;99.90
19908;DHT22;10116;53.112;7.356;2022-10-31T09:11:03;26.70;99.90
19908;DHT22;10116;53.112;7.356;2022-10-31T09:13:29;26.80;99.90
19908;DHT22;10116;53.112;7.356;2022-10-31T09:15:56;26.80;99.90
19908;DHT22;10116;53.112;7.356;2022-10-31T09:18:24;26.80;99.90
19908;DHT22;10116;53.112;7.356;2022-10-31T09:20:50;26.90;99.90
19908;DHT22;10116;53.112;7.356;2022-10-31T09:23:18;26.90;99.90
19908;DHT22;10116;53.112;7.356;2022-10-31T09:25:45;26.80;99.90
19908;DHT22;10116;53.112;7.356;2022-10-31T09:28:13;26.80;99.90
19908;DHT22;10116;53.112;7.356;2022-10-31T09:30:39;26.80;99.90
19908;DHT22;10116;53.112;7.356;2022-10-31T09:33:06;26.80;99.90
19908;DHT22;10116;53.112;7.356;2022-10-31T09:35:33;26.80;99.90
19908;DHT22;10116;53.112;7.356;2022-10-31T09:38:01;26.80;99.90
19908;DHT22;10116;53.112;7.356;2022-10-31T09:40:39;26.80;99.90
19908;DHT22;10116;53.112;7.356;2022-10-31T09:52:44;26.70;99.90
19908;DHT22;10116;53.112;7.356;2022-10-31T09:57:33;26.60;99.90
19908;DHT22;10116;53.112;7.356;2022-10-31T10:00:01;26.60;99.90
19908;DHT22;10116;53.112;7.356;2022-10-31T10:02:43;26.60;99.90
19908;DHT22;10116;53.112;7.356;2022-10-31T10:05:39;26.70;99.90
19908;DHT22;10116;53.112;7.356;2022-10-31T10:13:32;26.70;99.90
19908;DHT22;10116;53.112;7.356;2022-10-31T10:24:56;26.60;99.90
19908;DHT22;10116;53.112;7.356;2022-10-31T10:28:02;26.60;99.90
19908;DHT22;10116;53.112;7.356;2022-10-31T10:33:08;26.50;99.90
19908;DHT22;10116;53.112;7.356;2022-10-31T10:35:55;26.50;99.90
19908;DHT22;10116;53.112;7.356;2022-10-31T10:38:38;26.50;99.90
19908;DHT22;10116;53.112;7.356;2022-10-31T10:41:21;26.40;99.90
19908;DHT22;10116;53.112;7.356;2022-10-31T10:43:51;26.50;99.90
19908;DHT22;10116;53.112;7.356;2022-10-31T10:49:32;26.50;99.90
19908;DHT22;10116;53.112;7.356;2022-10-31T10:57:17;26.40;99.90
19908;DHT22;10116;53.112;7.356;2022-10-31T10:59:45;26.40;99.90
19908;DHT22;10116;53.112;7.356;2022-10-31T11:02:24;26.50;99.90
19908;DHT22;10116;53.112;7.356;2022-10-31T11:04:52;26.50;99.90
19908;DHT22;10116;53.112;7.356;2022-10-31T11:07:19;26.70;99.90
19908;DHT22;10116;53.112;7.356;2022-10-31T11:09:45;26.70;99.90
19908;DHT22;10116;53.112;7.356;2022-10-31T11:12:28;26.80;99.90
19908;DHT22;10116;53.112;7.356;2022-10-31T11:14:57;26.90;99.90
19908;DHT22;10116;53.112;7.356;2022-10-31T11:17:36;26.90;99.90
19908;DHT22;10116;53.112;7.356;2022-10-31T11:20:27;26.90;99.90
19908;DHT22;10116;53.112;7.356;2022-10-31T11:23:18;26.90;99.90
19908;DHT22;10116;53.112;7.356;2022-10-31T11:25:49;26.90;99.90
19908;DHT22;10116;53.112;7.356;2022-10-31T11:28:15;26.90;99.90
19908;DHT22;10116;53.112;7.356;2022-10-31T11:30:48;27.00;99.90
19908;DHT22;10116;53.112;7.356;2022-10-31T11:33:34;27.00;99.90
19908;DHT22;10116;53.112;7.356;2022-10-31T11:36:03;27.00;99.90
19908;DHT22;10116;53.112;7.356;2022-10-31T11:38:39;27.00;99.90
19908;DHT22;10116;53.112;7.356;2022-10-31T11:43:34;26.90;99.90
19908;DHT22;10116;53.112;7.356;2022-10-31T11:46:09;26.90;99.90
19908;DHT22;10116;53.112;7.356;2022-10-31T11:48:34;26.90;99.90
19908;DHT22;10116;53.112;7.356;2022-10-31T11:51:01;26.90;99.90
19908;DHT22;10116;53.112;7.356;2022-10-31T11:53:30;26.90;99.90
19908;DHT22;10116;53.112;7.356;2022-10-31T11:58:36;26.90;99.90
19908;DHT22;10116;53.112;7.356;2022-10-31T12:01:01;26.80;99.90
19908;DHT22;10116;53.112;7.356;2022-10-31T12:08:35;26.80;99.90
19908;DHT22;10116;53.112;7.356;2022-10-31T12:16:42;26.70;99.90
19908;DHT22;10116;53.112;7.356;2022-10-31T12:22:05;26.70;99.90
19908;DHT22;10116;53.112;7.356;2022-10-31T12:24:50;26.70;99.90
19908;DHT22;10116;53.112;7.356;2022-10-31T12:30:19;26.80;99.90
19908;DHT22;10116;53.112;7.356;2022-10-31T13:00:00;26.80;99.90
19908;DHT22;10116;53.112;7.356;2022-10-31T13:02:50;26.70;99.90
19908;DHT22;10116;53.112;7.356;2022-10-31T13:05:34;26.70;99.90
19908;DHT22;10116;53.112;7.356;2022-10-31T13:08:34;26.70;99.90
19908;DHT22;10116;53.112;7.356;2022-10-31T13:11:08;26.70;99.90
19908;DHT22;10116;53.112;7.356;2022-10-31T13:13:42;26.60;99.90
19908;DHT22;10116;53.112;7.356;2022-10-31T13:19:30;26.60;99.90
19908;DHT22;10116;53.112;7.356;2022-10-31T13:22:05;26.50;99.90
19908;DHT22;10116;53.112;7.356;2022-10-31T13:27:48;26.50;99.90
19908;DHT22;10116;53.112;7.356;2022-10-31T13:30:21;26.50;99.90
19908;DHT22;10116;53.112;7.356;2022-10-31T13:33:12;26.50;99.90
19908;DHT22;10116;53.112;7.356;2022-10-31T13:41:23;26.40;99.90
19908;DHT22;10116;53.112;7.356;2022-10-31T13:44:15;26.40;99.90
19908;DHT22;10116;53.112;7.356;2022-10-31T13:46:44;26.40;99.90
19908;DHT22;10116;53.112;7.356;2022-10-31T13:52:25;26.40;99.90
19908;DHT22;10116;53.112;7.356;2022-10-31T13:54:52;26.40;99.90
19908;DHT22;10116;53.112;7.356;2022-10-31T13:57:35;26.30;99.90
19908;DHT22;10116;53.112;7.356;2022-10-31T14:02:52;26.20;99.90
19908;DHT22;10116;53.112;7.356;2022-10-31T14:05:31;26.30;99.90
19908;DHT22;10116;53.112;7.356;2022-10-31T14:08:00;26.40;99.90
19908;DHT22;10116;53.112;7.356;2022-10-31T14:10:46;26.50;99.90
19908;DHT22;10116;53.112;7.356;2022-10-31T14:13:27;26.60;99.90
19908;DHT22;10116;53.112;7.356;2022-10-31T14:16:02;26.70;99.90
19908;DHT22;10116;53.112;7.356;2022-10-31T14:18:32;26.70;99.90
19908;DHT22;10116;53.112;7.356;2022-10-31T14:20:58;26.70;99.90
19908;DHT22;10116;53.112;7.356;2022-10-31T14:26:18;26.80;99.90
19908;DHT22;10116;53.112;7.356;2022-10-31T14:28:45;26.80;99.90
19908;DHT22;10116;53.112;7.356;2022-10-31T14:33:53;26.70;99.90
19908;DHT22;10116;53.112;7.356;2022-10-31T14:36:28;26.70;99.90
19908;DHT22;10116;53.112;7.356;2022-10-31T14:39:16;26.70;99.90
19908;DHT22;10116;53.112;7.356;2022-10-31T14:45:01;26.60;99.90
19908;DHT22;10116;53.112;7.356;2022-10-31T14:52:41;26.50;99.90
19908;DHT22;10116;53.112;7.356;2022-10-31T14:55:11;26.50;99.90
19908;DHT22;10116;53.112;7.356;2022-10-31T14:57:42;26.50;99.90
19908;DHT22;10116;53.112;7.356;2022-10-31T15:00:17;26.50;99.90
19908;DHT22;10116;53.112;7.356;2022-10-31T15:05:40;26.50;99.90
19908;DHT22;10116;53.112;7.356;2022-10-31T15:08:13;26.40;99.90
19908;DHT22;10116;53.112;7.356;2022-10-31T15:10:50;26.40;99.90
19908;DHT22;10116;53.112;7.356;2022-10-31T15:13:20;26.40;99.90
19908;DHT22;10116;53.112;7.356;2022-10-31T15:15:47;26.40;99.90
19908;DHT22;10116;53.112;7.356;2022-10-31T15:18:17;26.30;99.90
19908;DHT22;10116;53.112;7.356;2022-10-31T15:20:45;26.30;99.90
19908;DHT22;10116;53.112;7.356;2022-10-31T15:23:16;26.30;99.90
19908;DHT22;10116;53.112;7.356;2022-10-31T15:25:43;26.30;99.90
19908;DHT22;10116;53.112;7.356;2022-10-31T15:28:23;26.30;99.90
19908;DHT22;10116;53.112;7.356;2022-10-31T15:30:59;26.30;99.90
19908;DHT22;10116;53.112;7.356;2022-10-31T15:33:30;26.40;99.90
19908;DHT22;10116;53.112;7.356;2022-10-31T15:35:59;26.50;99.90
19908;DHT22;10116;53.112;7.356;2022-10-31T15:38:26;26.60;99.90
19908;DHT22;10116;53.112;7.356;2022-10-31T15:40:56;26.70;99.90
19908;DHT22;10116;53.112;7.356;2022-10-31T15:43:23;26.80;99.90
19908;DHT22;10116;53.112;7.356;2022-10-31T15:45:48;26.80;99.90
19908;DHT22;10116;53.112;7.356;2022-10-31T15:48:17;26.80;99.90
19908;DHT22;10116;53.112;7.356;2022-10-31T15:50:52;26.80;99.90
19908;DHT22;10116;53.112;7.356;2022-10-31T15:53:37;26.80;99.90
19908;DHT22;10116;53.112;7.356;2022-10-31T15:56:10;26.80;99.90
19908;DHT22;10116;53.112;7.356;2022-10-31T15:58:44;26.80;99.90
19908;DHT22;10116;53.112;7.356;2022-10-31T16:01:25;26.80;99.90
19908;DHT22;10116;53.112;7.356;2022-10-31T16:06:32;26.80;99.90
19908;DHT22;10116;53.112;7.356;2022-10-31T16:08:58;26.70;99.90
19908;DHT22;10116;53.112;7.356;2022-10-31T16:11:35;26.70;99.90
19908;DHT22;10116;53.112;7.356;2022-10-31T16:14:16;26.70;99.90
19908;DHT22;10116;53.112;7.356;2022-10-31T16:16:48;26.60;99.90
19908;DHT22;10116;53.112;7.356;2022-10-31T16:19:28;26.60;99.90
19908;DHT22;10116;53.112;7.356;2022-10-31T16:22:03;26.50;99.90
19908;DHT22;10116;53.112;7.356;2022-10-31T16:24:32;26.50;99.90
19908;DHT22;10116;53.112;7.356;2022-10-31T16:27:03;26.40;99.90
19908;DHT22;10116;53.112;7.356;2022-10-31T16:29:34;26.40;99.90
19908;DHT22;10116;53.112;7.356;2022-10-31T16:32:01;26.50;99.90
19908;DHT22;10116;53.112;7.356;2022-10-31T16:34:27;26.60;99.90
19908;DHT22;10116;53.112;7.356;2022-10-31T16:36:52;26.60;99.90
19908;DHT22;10116;53.112;7.356;2022-10-31T16:39:18;26.70;99.90
19908;DHT22;10116;53.112;7.356;2022-10-31T16:41:46;26.80;99.90
19908;DHT22;10116;53.112;7.356;2022-10-31T16:44:24;26.90;99.90
19908;DHT22;10116;53.112;7.356;2022-10-31T16:47:08;26.90;99.90
19908;DHT22;10116;53.112;7.356;2022-10-31T16:49:34;26.90;99.90
19908;DHT22;10116;53.112;7.356;2022-10-31T16:52:00;26.90;99.90
19908;DHT22;10116;53.112;7.356;2022-10-31T16:54:26;26.90;99.90
19908;DHT22;10116;53.112;7.356;2022-10-31T16:56:54;26.90;99.90
19908;DHT22;10116;53.112;7.356;2022-10-31T16:59:19;26.90;99.90
19908;DHT22;10116;53.112;7.356;2022-10-31T17:01:48;26.90;99.90
19908;DHT22;10116;53.112;7.356;2022-10-31T17:04:14;26.90;99.90
19908;DHT22;10116;53.112;7.356;2022-10-31T17:06:41;26.80;99.90
19908;DHT22;10116;53.112;7.356;2022-10-31T17:09:07;26.80;99.90
19908;DHT22;10116;53.112;7.356;2022-10-31T17:11:33;26.80;99.90
19908;DHT22;10116;53.112;7.356;2022-10-31T17:13:59;26.80;99.90
19908;DHT22;10116;53.112;7.356;2022-10-31T17:16:26;26.80;99.90
19908;DHT22;10116;53.112;7.356;2022-10-31T17:18:51;26.70;99.90
19908;DHT22;10116;53.112;7.356;2022-10-31T17:21:24;26.70;99.90
19908;DHT22;10116;53.112;7.356;2022-10-31T17:23:50;26.70;99.90
19908;DHT22;10116;53.112;7.356;2022-10-31T17:26:16;26.70;99.90
19908;DHT22;10116;53.112;7.356;2022-10-31T17:28:42;26.70;99.90
19908;DHT22;10116;53.112;7.356;2022-10-31T17:31:21;26.60;99.90
19908;DHT22;10116;53.112;7.356;2022-10-31T17:33:48;26.60;99.90
19908;DHT22;10116;53.112;7.356;2022-10-31T17:36:13;26.50;99.90
19908;DHT22;10116;53.112;7.356;2022-10-31T17:38:39;26.50;99.90
19908;DHT22;10116;53.112;7.356;2022-10-31T17:41:05;26.50;99.90
19908;DHT22;10116;53.112;7.356;2022-10-31T17:43:31;26.60;99.90
19908;DHT22;10116;53.112;7.356;2022-10-31T17:45:59;26.70;99.90
19908;DHT22;10116;53.112;7.356;2022-10-31T17:48:25;26.70;99.90
19908;DHT22;10116;53.112;7.356;2022-10-31T17:50:51;26.80;99.90
19908;DHT22;10116;53.112;7.356;2022-10-31T17:53:17;26.80;99.90
19908;DHT22;10116;53.112;7.356;2022-10-31T17:55:42;26.80;99.90
19908;DHT22;10116;53.112;7.356;2022-10-31T17:58:08;26.80;99.90
19908;DHT22;10116;53.112;7.356;2022-10-31T18:00:37;26.80;99.90
19908;DHT22;10116;53.112;7.356;2022-10-31T18:03:03;26.70;99.90
19908;DHT22;10116;53.112;7.356;2022-10-31T18:05:29;26.70;99.90
19908;DHT22;10116;53.112;7.356;2022-10-31T18:07:55;26.70;99.90
19908;DHT22;10116;53.112;7.356;2022-10-31T18:10:21;26.70;99.90
19908;DHT22;10116;53.112;7.356;2022-10-31T18:12:46;26.60;99.90
19908;DHT22;10116;53.112;7.356;2022-10-31T18:15:14;26.60;99.90
19908;DHT22;10116;53.112;7.356;2022-10-31T18:17:40;26.50;99.90
19908;DHT22;10116;53.112;7.356;2022-10-31T18:20:06;26.50;99.90
19908;DHT22;10116;53.112;7.356;2022-10-31T18:22:32;26.50;99.90
19908;DHT22;10116;53.112;7.356;2022-10-31T18:24:57;26.50;99.90
19908;DHT22;10116;53.112;7.356;2022-10-31T18:27:23;26.50;99.90
19908;DHT22;10116;53.112;7.356;2022-10-31T18:29:51;26.60;99.90
19908;DHT22;10116;53.112;7.356;2022-10-31T18:32:17;26.60;99.90
19908;DHT22;10116;53.112;7.356;2022-10-31T18:34:42;26.70;99.90
19908;DHT22;10116;53.112;7.356;2022-10-31T18:37:08;26.80;99.90
19908;DHT22;10116;53.112;7.356;2022-10-31T18:39:34;26.80;99.90